Time;durP1;ratioP1;P1;durP2;ratioP2;P2;SDS_P1;SDS_P2;PMS_P1;PMS_P2;Temp;Humidity;BMP_temperature;BMP_pressure;BME280_temperature;BME280_humidity;BME280_pressure;Samples;Min_cycle;Max_cycle;Signal;HPM_P1;HPM_P2
2023/03/02 00:00:14;;;;;;;;;;;;;;;-0.09;80.83;96487.97;4993931;28;19973;-75
2023/03/02 00:02:42;;;;;;;;;;;;;;;-0.10;81.47;96476.03;4993937;28;19963;-76
2023/03/02 00:05:09;;;;;;;;;;;;;;;-0.12;81.83;96476.19;4993926;28;19939;-74
2023/03/02 00:07:35;;;;;;;;;;;;;;;-0.11;82.17;96474.41;4994344;28;19952;-75
2023/03/02 00:10:02;;;;;;;;;;;;;;;-0.13;80.86;96477.13;4994020;28;19945;-75
2023/03/02 00:12:31;;;;;;;;;;;;;;;-0.14;80.87;96470.38;4993915;28;20360;-74
2023/03/02 00:14:57;;;;;;;;;;;;;;;-0.13;80.38;96474.56;4993834;28;19961;-75
2023/03/02 00:17:26;;;;;;;;;;;;;;;-0.13;81.36;96477.13;4993600;28;20432;-74
2023/03/02 00:19:53;;;;;;;;;;;;;;;-0.12;80.71;96478.75;4994088;28;19953;-74
2023/03/02 00:22:19;;;;;;;;;;;;;;;-0.14;82.01;96482.47;4993912;28;19952;-75
2023/03/02 00:24:45;;;;;;;;;;;;;;;-0.16;81.09;96480.03;4994055;28;19998;-74
2023/03/02 00:27:11;;;;;;;;;;;;;;;-0.19;81.78;96474.34;4994053;28;19996;-75
2023/03/02 00:29:36;;;;;;;;;;;;;;;-0.24;81.69;96472.22;4993754;28;20293;-75
2023/03/02 00:32:02;;;;;;;;;;;;;;;-0.27;82.68;96470.75;4993738;28;19950;-75
2023/03/02 00:34:31;;;;;;;;;;;;;;;-0.28;81.40;96474.28;4994024;28;20374;-75
2023/03/02 00:36:57;;;;;;;;;;;;;;;-0.29;82.80;96472.69;4993531;28;19961;-75
2023/03/02 00:39:23;;;;;;;;;;;;;;;-0.32;81.94;96459.28;4996530;28;20425;-75
2023/03/02 00:41:49;;;;;;;;;;;;;;;-0.34;83.09;96467.16;4996269;28;20068;-75
2023/03/02 00:44:18;;;;;;;;;;;;;;;-0.36;83.35;96461.31;4996979;28;20377;-74
2023/03/02 00:46:44;;;;;;;;;;;;;;;-0.35;82.80;96462.97;4996892;28;19941;-75
2023/03/02 00:49:12;;;;;;;;;;;;;;;-0.37;83.04;96477.75;4996475;28;20265;-74
2023/03/02 00:51:38;;;;;;;;;;;;;;;-0.37;83.35;96466.66;4997083;28;19962;-75
2023/03/02 00:54:04;;;;;;;;;;;;;;;-0.41;82.09;96459.19;4997177;28;19971;-75
2023/03/02 00:56:30;;;;;;;;;;;;;;;-0.43;82.55;96458.53;4996928;28;19948;-75
2023/03/02 00:58:56;;;;;;;;;;;;;;;-0.42;82.43;96465.34;4996773;28;19948;-75
2023/03/02 01:01:21;;;;;;;;;;;;;;;-0.42;83.68;96467.06;4997055;28;19959;-75
2023/03/02 01:03:47;;;;;;;;;;;;;;;-0.43;82.24;96460.31;4996774;28;20372;-75
2023/03/02 01:06:15;;;;;;;;;;;;;;;-0.46;82.45;96455.47;4996818;28;20368;-75
2023/03/02 01:08:40;;;;;;;;;;;;;;;-0.45;81.86;96451.94;4996561;28;20401;-74
2023/03/02 01:11:13;;;;;;;;;;;;;;;-0.46;83.57;96466.59;4997061;28;19949;-75
2023/03/02 01:13:39;;;;;;;;;;;;;;;-0.49;83.34;96461.72;4984511;28;19948;-75
2023/03/02 01:16:05;;;;;;;;;;;;;;;-0.50;84.75;96467.84;4979044;28;19971;-75
2023/03/02 01:18:33;;;;;;;;;;;;;;;-0.50;84.73;96462.69;4996634;28;20313;-75
2023/03/02 01:21:02;;;;;;;;;;;;;;;-0.53;84.67;96454.44;4996221;28;19950;-75
2023/03/02 01:23:28;;;;;;;;;;;;;;;-0.52;83.29;96449.13;4996206;28;19943;-75
2023/03/02 01:25:54;;;;;;;;;;;;;;;-0.53;83.52;96446.72;4996305;28;19958;-75
2023/03/02 01:28:20;;;;;;;;;;;;;;;-0.55;83.42;96443.47;4978740;28;19950;-75
2023/03/02 01:30:46;;;;;;;;;;;;;;;-0.56;83.90;96442.66;4996513;28;19956;-74
2023/03/02 01:33:12;;;;;;;;;;;;;;;-0.54;84.44;96442.53;4996280;28;20068;-75
2023/03/02 01:35:37;;;;;;;;;;;;;;;-0.59;86.01;96445.53;4978667;28;20038;-75
2023/03/02 01:38:03;;;;;;;;;;;;;;;-0.60;84.35;96437.97;4996173;28;20005;-75
2023/03/02 01:40:29;;;;;;;;;;;;;;;-0.62;84.84;96441.47;4996137;28;19957;-74
2023/03/02 01:42:57;;;;;;;;;;;;;;;-0.63;83.91;96434.72;4996502;28;20347;-74
2023/03/02 01:45:38;;;;;;;;;;;;;;;-0.65;84.40;96436.66;4996261;28;20409;-75
2023/03/02 01:48:04;;;;;;;;;;;;;;;-0.69;83.52;96425.00;4996093;28;19946;-75
2023/03/02 01:50:30;;;;;;;;;;;;;;;-0.69;86.15;96439.66;4977744;28;20363;-75
2023/03/02 01:52:56;;;;;;;;;;;;;;;-0.72;84.25;96433.03;4995735;28;20414;-75
2023/03/02 01:55:24;;;;;;;;;;;;;;;-0.74;85.46;96431.56;4995548;28;20056;-75
2023/03/02 01:57:51;;;;;;;;;;;;;;;-0.77;84.98;96429.28;4996223;28;19956;-74
2023/03/02 02:00:20;;;;;;;;;;;;;;;-0.77;85.25;96437.00;4995766;28;19942;-74
2023/03/02 02:02:46;;;;;;;;;;;;;;;-0.80;86.28;96432.13;4995748;28;19948;-76
2023/03/02 02:05:14;;;;;;;;;;;;;;;-0.84;85.20;96429.03;4995844;28;19952;-74
2023/03/02 02:07:40;;;;;;;;;;;;;;;-0.85;85.89;96428.25;4995472;28;19947;-75
2023/03/02 02:10:06;;;;;;;;;;;;;;;-0.86;85.34;96420.66;4995416;28;19951;-74
2023/03/02 02:12:32;;;;;;;;;;;;;;;-0.86;84.74;96415.50;4995231;28;19953;-75
2023/03/02 02:15:00;;;;;;;;;;;;;;;-0.86;85.63;96418.09;4995352;28;20003;-75
2023/03/02 02:17:29;;;;;;;;;;;;;;;-0.85;87.33;96435.16;4995337;28;19947;-75
2023/03/02 02:20:00;;;;;;;;;;;;;;;-0.84;86.55;96432.44;4995257;28;19954;-75
2023/03/02 02:22:49;;;;;;;;;;;;;;;-0.80;87.29;96432.94;4981113;28;19947;-75
2023/03/02 02:25:34;;;;;;;;;;;;;;;-0.78;84.93;96415.59;4958590;28;19953;-75
2023/03/02 02:28:01;;;;;;;;;;;;;;;-0.77;86.51;96429.28;4995171;28;19939;-74
2023/03/02 02:30:27;;;;;;;;;;;;;;;-0.76;86.84;96420.59;4994927;28;20613;-75
2023/03/02 02:32:54;;;;;;;;;;;;;;;-0.78;87.37;96422.50;4995077;28;19956;-75
2023/03/02 02:35:26;;;;;;;;;;;;;;;-0.76;85.96;96407.72;4995206;28;20328;-75
2023/03/02 02:38:00;;;;;;;;;;;;;;;-0.77;87.09;96419.78;4994844;28;19951;-74
2023/03/02 02:40:46;;;;;;;;;;;;;;;-0.77;86.44;96409.50;4995092;28;19952;-75
2023/03/02 02:43:13;;;;;;;;;;;;;;;-0.78;86.08;96401.91;4984560;28;20055;-75
2023/03/02 02:45:39;;;;;;;;;;;;;;;-0.80;86.93;96420.06;4994761;28;19955;-75
2023/03/02 02:48:10;;;;;;;;;;;;;;;-0.84;86.68;96414.44;4994438;28;19955;-75
2023/03/02 02:50:36;;;;;;;;;;;;;;;-0.86;86.82;96403.47;4977790;28;19953;-75
2023/03/02 02:53:05;;;;;;;;;;;;;;;-0.85;87.22;96409.41;4994858;28;19965;-75
2023/03/02 02:55:32;;;;;;;;;;;;;;;-0.85;87.12;96410.22;4977344;28;19954;-75
2023/03/02 02:57:59;;;;;;;;;;;;;;;-0.85;86.40;96399.91;4995213;28;19955;-74
2023/03/02 03:00:26;;;;;;;;;;;;;;;-0.82;87.19;96398.81;4994342;28;19960;-75
2023/03/02 03:03:00;;;;;;;;;;;;;;;-0.82;86.46;96398.81;4995175;28;19950;-74
2023/03/02 03:05:26;;;;;;;;;;;;;;;-0.79;86.58;96402.88;4977045;28;19945;-74
2023/03/02 03:08:04;;;;;;;;;;;;;;;-0.78;86.41;96402.72;4994569;28;19959;-74
2023/03/02 03:10:38;;;;;;;;;;;;;;;-0.78;85.62;96389.03;4994508;28;19954;-75
2023/03/02 03:13:06;;;;;;;;;;;;;;;-0.80;85.84;96384.03;4994896;28;20400;-74
2023/03/02 03:15:31;;;;;;;;;;;;;;;-0.79;87.87;96400.31;4994269;28;20339;-75
2023/03/02 03:17:58;;;;;;;;;;;;;;;-0.85;86.42;96397.34;4994429;28;19952;-75
2023/03/02 03:20:24;;;;;;;;;;;;;;;-0.88;86.76;96389.13;4994382;28;19951;-74
2023/03/02 03:22:53;;;;;;;;;;;;;;;-0.87;86.62;96393.31;4976923;28;19955;-75
2023/03/02 03:25:20;;;;;;;;;;;;;;;-0.87;86.17;96381.25;4977003;28;20406;-75
2023/03/02 03:27:46;;;;;;;;;;;;;;;-0.87;87.12;96391.53;4994698;28;19948;-75
2023/03/02 03:30:13;;;;;;;;;;;;;;;-0.89;87.04;96384.91;4994316;28;20424;-74
2023/03/02 03:32:39;;;;;;;;;;;;;;;-0.91;86.79;96379.91;4994278;28;19964;-75
2023/03/02 03:35:07;;;;;;;;;;;;;;;-0.92;86.97;96385.22;4994105;28;19969;-75
2023/03/02 03:37:34;;;;;;;;;;;;;;;-0.88;86.45;96391.72;4994299;28;19953;-75
2023/03/02 03:39:59;;;;;;;;;;;;;;;-0.87;88.40;96408.75;4994444;28;19950;-74
2023/03/02 03:42:25;;;;;;;;;;;;;;;-0.87;88.24;96401.84;4994040;28;19967;-75
2023/03/02 03:44:51;;;;;;;;;;;;;;;-0.87;87.78;96396.69;4994415;28;19951;-75
2023/03/02 03:47:17;;;;;;;;;;;;;;;-0.89;87.48;96396.03;4994098;28;20449;-75
2023/03/02 03:49:43;;;;;;;;;;;;;;;-0.90;87.46;96391.03;4994049;28;19943;-75
2023/03/02 03:52:09;;;;;;;;;;;;;;;-0.90;87.41;96389.28;4994203;28;19995;-74
2023/03/02 03:54:35;;;;;;;;;;;;;;;-0.87;88.02;96399.25;4993957;28;19959;-74
2023/03/02 03:57:01;;;;;;;;;;;;;;;-0.87;87.79;96396.69;4976905;28;19999;-74
2023/03/02 03:59:26;;;;;;;;;;;;;;;-0.88;86.85;96387.34;4994223;28;19957;-74
2023/03/02 04:01:55;;;;;;;;;;;;;;;-0.90;88.75;96404.72;4993849;28;19954;-74
2023/03/02 04:04:22;;;;;;;;;;;;;;;-0.93;89.28;96405.00;4993871;28;20399;-75
2023/03/02 04:06:48;;;;;;;;;;;;;;;-0.93;87.94;96394.69;4993829;28;19951;-75
2023/03/02 04:09:16;;;;;;;;;;;;;;;-0.92;88.57;96403.25;4993793;28;19953;-75
2023/03/02 04:11:43;;;;;;;;;;;;;;;-0.92;89.37;96422.06;4994184;28;19957;-75
2023/03/02 04:14:10;;;;;;;;;;;;;;;-0.95;89.82;96418.97;4996754;28;19962;-75
2023/03/02 04:16:36;;;;;;;;;;;;;;;-0.99;90.32;96423.59;4997555;28;19992;-75
2023/03/02 04:19:03;;;;;;;;;;;;;;;-1.01;89.67;96422.94;4998134;28;20422;-75
2023/03/02 04:21:28;;;;;;;;;;;;;;;-1.00;88.10;96410.91;4997396;28;19956;-75
2023/03/02 04:23:54;;;;;;;;;;;;;;;-0.99;90.27;96422.78;4997660;28;19957;-75
2023/03/02 04:26:20;;;;;;;;;;;;;;;-0.99;89.05;96412.50;4997335;28;19957;-74
2023/03/02 04:28:49;;;;;;;;;;;;;;;-1.00;89.20;96416.03;4997343;28;20008;-75
2023/03/02 04:31:15;;;;;;;;;;;;;;;-1.01;88.83;96412.63;4997335;28;19959;-75
2023/03/02 04:33:41;;;;;;;;;;;;;;;-1.04;89.21;96405.22;4997450;28;20420;-75
2023/03/02 04:36:07;;;;;;;;;;;;;;;-1.06;89.42;96405.34;4997099;28;19972;-75
2023/03/02 04:38:33;;;;;;;;;;;;;;;-1.07;89.97;96408.91;4997339;28;20288;-75
2023/03/02 04:40:59;;;;;;;;;;;;;;;-1.08;89.55;96406.47;4996880;28;20000;-74
2023/03/02 04:43:25;;;;;;;;;;;;;;;-1.09;89.94;96407.41;4979688;28;19960;-74
2023/03/02 04:45:52;;;;;;;;;;;;;;;-1.12;89.99;96411.09;4997208;28;19953;-74
2023/03/02 04:48:18;;;;;;;;;;;;;;;-1.13;90.58;96414.63;4996843;28;19953;-75
2023/03/02 04:50:44;;;;;;;;;;;;;;;-1.13;90.00;96404.34;4997044;28;20390;-74
2023/03/02 04:53:11;;;;;;;;;;;;;;;-1.14;91.56;96419.91;4996871;28;19955;-75
2023/03/02 04:55:36;;;;;;;;;;;;;;;-1.13;90.43;96412.06;4997008;28;19972;-75
2023/03/02 04:58:02;;;;;;;;;;;;;;;-1.12;89.79;96402.56;4996863;28;20403;-75
2023/03/02 05:00:28;;;;;;;;;;;;;;;-1.12;91.17;96410.28;4979601;28;19966;-75
2023/03/02 05:02:54;;;;;;;;;;;;;;;-1.12;90.59;96407.72;4996910;28;19995;-74
2023/03/02 05:05:22;;;;;;;;;;;;;;;-1.09;91.17;96408.25;4996551;28;19942;-75
2023/03/02 05:07:48;;;;;;;;;;;;;;;-1.07;89.81;96400.34;4996831;28;19957;-75
2023/03/02 05:10:15;;;;;;;;;;;;;;;-1.05;89.70;96403.59;4996876;28;19962;-75
2023/03/02 05:12:54;;;;;;;;;;;;;;;-1.03;90.35;96410.22;4996571;28;20326;-74
2023/03/02 05:15:21;;;;;;;;;;;;;;;-1.00;90.86;96405.75;4996491;28;20390;-75
2023/03/02 05:17:47;;;;;;;;;;;;;;;-1.01;90.69;96407.50;4997109;28;19961;-75
2023/03/02 05:20:13;;;;;;;;;;;;;;;-1.04;91.21;96412.94;4996493;28;19941;-75
2023/03/02 05:22:39;;;;;;;;;;;;;;;-1.07;92.17;96402.91;4996677;28;20461;-74
2023/03/02 05:25:05;;;;;;;;;;;;;;;-1.09;91.30;96402.25;4995180;28;20360;-75
2023/03/02 05:27:31;;;;;;;;;;;;;;;-1.10;91.80;96409.19;4996407;28;19955;-76
2023/03/02 05:29:57;;;;;;;;;;;;;;;-1.11;91.64;96397.28;4996093;28;19948;-75
2023/03/02 05:32:22;;;;;;;;;;;;;;;-1.13;91.12;96398.38;4996581;28;20357;-75
2023/03/02 05:34:48;;;;;;;;;;;;;;;-1.13;92.03;96406.09;4996118;28;20049;-75
2023/03/02 05:37:14;;;;;;;;;;;;;;;-1.11;90.81;96393.91;4981361;28;19951;-75
2023/03/02 05:39:40;;;;;;;;;;;;;;;-1.09;90.95;96397.94;4978868;28;19951;-74
2023/03/02 05:42:06;;;;;;;;;;;;;;;-1.07;91.37;96401.19;4995943;28;19976;-74
2023/03/02 05:44:32;;;;;;;;;;;;;;;-1.05;90.77;96401.00;4995983;28;19969;-74
2023/03/02 05:46:57;;;;;;;;;;;;;;;-1.07;91.25;96397.78;4996006;28;19992;-74
2023/03/02 05:49:23;;;;;;;;;;;;;;;-1.06;91.24;96399.41;4996037;28;19957;-75
2023/03/02 05:51:49;;;;;;;;;;;;;;;-1.06;91.00;96407.13;4995083;28;20015;-74
2023/03/02 05:54:15;;;;;;;;;;;;;;;-1.07;91.11;96398.59;4978522;28;19956;-74
2023/03/02 05:56:41;;;;;;;;;;;;;;;-1.07;91.41;96405.50;4977812;28;19963;-75
2023/03/02 05:59:07;;;;;;;;;;;;;;;-1.08;90.44;96391.81;4978336;28;19953;-75
2023/03/02 06:01:35;;;;;;;;;;;;;;;-1.05;91.26;96401.00;4995711;28;19953;-75
2023/03/02 06:04:00;;;;;;;;;;;;;;;-1.05;93.15;96406.16;4996058;28;20462;-74
2023/03/02 06:06:26;;;;;;;;;;;;;;;-1.04;92.00;96395.72;4995481;28;20056;-75
2023/03/02 06:08:52;;;;;;;;;;;;;;;-1.03;91.13;96399.09;4995586;28;19952;-75
2023/03/02 06:11:18;;;;;;;;;;;;;;;-1.02;91.92;96398.97;4995198;28;19955;-75
2023/03/02 06:13:44;;;;;;;;;;;;;;;-1.02;91.71;96398.97;4995787;28;20000;-75
2023/03/02 06:16:10;;;;;;;;;;;;;;;-1.04;91.53;96403.44;4995419;28;19970;-75
2023/03/02 06:18:36;;;;;;;;;;;;;;;-1.02;92.00;96404.13;4995434;28;20343;-74
2023/03/02 06:21:02;;;;;;;;;;;;;;;-0.99;91.47;96409.91;4995289;28;20400;-74
2023/03/02 06:23:28;;;;;;;;;;;;;;;-0.99;91.90;96405.56;4995114;28;19951;-75
2023/03/02 06:25:54;;;;;;;;;;;;;;;-0.98;92.03;96420.09;4995302;28;19952;-74
2023/03/02 06:28:20;;;;;;;;;;;;;;;-0.97;90.57;96410.59;4995125;28;19950;-74
2023/03/02 06:30:47;;;;;;;;;;;;;;;-0.93;91.40;96411.91;4995001;28;19959;-75
2023/03/02 06:33:14;;;;;;;;;;;;;;;-0.93;90.61;96414.50;4995455;28;19960;-75
2023/03/02 06:35:41;;;;;;;;;;;;;;;-0.91;91.85;96421.09;4994886;28;19968;-75
2023/03/02 06:38:07;;;;;;;;;;;;;;;-0.89;91.45;96423.53;4995043;28;19947;-75
2023/03/02 06:40:33;;;;;;;;;;;;;;;-0.88;92.58;96427.75;4994789;28;20041;-75
2023/03/02 06:43:00;;;;;;;;;;;;;;;-0.86;91.61;96429.22;4995087;28;19976;-74
2023/03/02 06:45:26;;;;;;;;;;;;;;;-0.85;90.88;96414.56;4977363;28;20432;-75
2023/03/02 06:47:52;;;;;;;;;;;;;;;-0.83;91.69;96433.25;4994778;28;19951;-75
2023/03/02 06:50:18;;;;;;;;;;;;;;;-0.84;92.41;96436.75;4994741;28;19947;-75
2023/03/02 06:52:44;;;;;;;;;;;;;;;-0.82;92.32;96434.84;4977284;28;19954;-74
2023/03/02 06:55:10;;;;;;;;;;;;;;;-0.82;91.98;96437.44;4994078;28;19999;-75
2023/03/02 06:57:36;;;;;;;;;;;;;;;-0.84;91.64;96429.88;4994554;28;19950;-75
2023/03/02 07:00:08;;;;;;;;;;;;;;;-0.79;90.88;96431.19;4994687;28;19954;-75
2023/03/02 07:02:34;;;;;;;;;;;;;;;-0.76;92.20;96441.19;4995045;28;19940;-75
2023/03/02 07:05:00;;;;;;;;;;;;;;;-0.74;91.42;96441.84;4994700;28;19957;-75
2023/03/02 07:07:26;;;;;;;;;;;;;;;-0.72;91.98;96445.09;4993798;28;19952;-75
2023/03/02 07:09:52;;;;;;;;;;;;;;;-0.68;91.97;96449.78;4977334;28;20438;-75
2023/03/02 07:12:18;;;;;;;;;;;;;;;-0.66;91.48;96442.72;4994560;28;20066;-74
2023/03/02 07:14:44;;;;;;;;;;;;;;;-0.59;91.08;96442.16;4977102;28;19951;-74
2023/03/02 07:17:10;;;;;;;;;;;;;;;-0.57;90.51;96435.06;4994892;28;19966;-75
2023/03/02 07:19:37;;;;;;;;;;;;;;;-0.53;91.26;96438.97;4993784;28;19956;-75
2023/03/02 07:22:04;;;;;;;;;;;;;;;-0.51;91.06;96445.59;4994305;28;19957;-75
2023/03/02 07:24:30;;;;;;;;;;;;;;;-0.47;90.77;96446.13;4994230;28;19955;-75
2023/03/02 07:26:56;;;;;;;;;;;;;;;-0.45;91.13;96450.16;4994363;28;19959;-75
2023/03/02 07:29:22;;;;;;;;;;;;;;;-0.40;91.04;96454.84;4994535;28;19951;-75
2023/03/02 07:31:48;;;;;;;;;;;;;;;-0.37;91.38;96453.78;4994340;28;19947;-75
2023/03/02 07:34:15;;;;;;;;;;;;;;;-0.36;91.36;96451.03;4976998;28;20018;-74
2023/03/02 07:36:40;;;;;;;;;;;;;;;-0.35;90.17;96452.66;4994146;28;19960;-74
2023/03/02 07:39:06;;;;;;;;;;;;;;;-0.31;91.02;96461.72;4994259;28;19983;-75
2023/03/02 07:41:32;;;;;;;;;;;;;;;-0.28;90.65;96455.44;4994469;28;19982;-74
2023/03/02 07:43:58;;;;;;;;;;;;;;;-0.27;90.62;96455.31;4994083;28;19957;-75
2023/03/02 07:46:24;;;;;;;;;;;;;;;-0.26;89.64;96451.75;4994418;28;19954;-75
2023/03/02 07:48:50;;;;;;;;;;;;;;;-0.24;89.87;96455.00;4996578;28;19946;-75
2023/03/02 07:51:16;;;;;;;;;;;;;;;-0.22;90.58;96457.41;4980695;28;19955;-75
2023/03/02 07:53:41;;;;;;;;;;;;;;;-0.17;90.38;96454.38;4998057;28;20006;-74
2023/03/02 07:56:08;;;;;;;;;;;;;;;-0.12;91.06;96465.06;4980815;28;19969;-74
2023/03/02 07:58:34;;;;;;;;;;;;;;;-0.07;90.91;96460.25;4998371;28;20505;-75
2023/03/02 08:01:00;;;;;;;;;;;;;;;-0.03;90.41;96457.22;4998320;28;19960;-75
2023/03/02 08:03:26;;;;;;;;;;;;;;;0.03;90.04;96455.81;4980378;28;20006;-75
2023/03/02 08:05:52;;;;;;;;;;;;;;;0.07;89.98;96454.56;4998006;28;19957;-75
2023/03/02 08:08:18;;;;;;;;;;;;;;;0.14;89.66;96460.72;4997928;28;19966;-75
2023/03/02 08:10:43;;;;;;;;;;;;;;;0.20;89.91;96460.09;4997945;28;20014;-75
2023/03/02 08:13:09;;;;;;;;;;;;;;;0.26;89.31;96463.06;4997734;28;19957;-75
2023/03/02 08:15:35;;;;;;;;;;;;;;;0.27;89.39;96462.09;4997684;28;20455;-75
2023/03/02 08:18:01;;;;;;;;;;;;;;;0.29;89.07;96462.72;4997882;28;19947;-76
2023/03/02 08:20:27;;;;;;;;;;;;;;;0.31;89.58;96471.13;4997524;28;19987;-75
2023/03/02 08:22:53;;;;;;;;;;;;;;;0.34;89.95;96470.84;4980163;28;19955;-76
2023/03/02 08:25:18;;;;;;;;;;;;;;;0.37;89.03;96476.47;4998128;28;19957;-75
2023/03/02 08:27:45;;;;;;;;;;;;;;;0.39;88.74;96466.81;4997565;28;20002;-75
2023/03/02 08:30:11;;;;;;;;;;;;;;;0.43;88.85;96479.44;4997592;28;20419;-75
2023/03/02 08:32:38;;;;;;;;;;;;;;;0.45;89.16;96480.88;4997496;28;19956;-75
2023/03/02 08:35:04;;;;;;;;;;;;;;;0.47;88.69;96478.97;4997719;28;20405;-75
2023/03/02 08:37:30;;;;;;;;;;;;;;;0.50;88.69;96477.84;4980055;28;19966;-76
2023/03/02 08:39:56;;;;;;;;;;;;;;;0.53;88.72;96475.78;4997437;28;19960;-75
2023/03/02 08:42:22;;;;;;;;;;;;;;;0.57;88.69;96478.88;4997114;28;20329;-76
2023/03/02 08:44:48;;;;;;;;;;;;;;;0.61;88.84;96475.00;4997247;28;19964;-75
2023/03/02 08:47:14;;;;;;;;;;;;;;;0.70;88.77;96468.09;4997188;28;20336;-76
2023/03/02 08:49:39;;;;;;;;;;;;;;;0.72;88.89;96466.19;4997131;28;19948;-74
2023/03/02 08:52:05;;;;;;;;;;;;;;;0.72;88.61;96472.13;4997014;28;19946;-75
2023/03/02 08:54:33;;;;;;;;;;;;;;;0.72;88.32;96469.56;4996772;28;19956;-75
2023/03/02 08:56:59;;;;;;;;;;;;;;;0.73;88.29;96463.41;4996943;28;19964;-75
2023/03/02 08:59:25;;;;;;;;;;;;;;;0.77;88.30;96471.66;4996678;28;20427;-74
2023/03/02 09:01:51;;;;;;;;;;;;;;;0.80;87.62;96455.88;4979614;28;19946;-75
2023/03/02 09:04:17;;;;;;;;;;;;;;;0.84;88.02;96467.53;4996603;28;19949;-75
2023/03/02 09:06:43;;;;;;;;;;;;;;;0.89;87.31;96467.03;4996558;28;19996;-75
2023/03/02 09:09:11;;;;;;;;;;;;;;;0.93;88.15;96470.94;4997268;28;19957;-74
2023/03/02 09:11:37;;;;;;;;;;;;;;;0.95;87.33;96462.06;4996666;28;19953;-75
2023/03/02 09:14:04;;;;;;;;;;;;;;;1.03;87.60;96469.03;4996739;28;19955;-75
2023/03/02 09:16:30;;;;;;;;;;;;;;;1.07;87.62;96462.59;4996470;28;19962;-75
2023/03/02 09:18:56;;;;;;;;;;;;;;;1.14;86.88;96450.66;4979026;28;19947;-74
2023/03/02 09:21:24;;;;;;;;;;;;;;;1.21;87.27;96450.81;4996846;28;19943;-74
2023/03/02 09:23:54;;;;;;;;;;;;;;;1.28;86.92;96443.22;4996258;28;19961;-74
2023/03/02 09:26:20;;;;;;;;;;;;;;;1.35;86.90;96445.03;4996572;28;20431;-73
2023/03/02 09:28:46;;;;;;;;;;;;;;;1.45;86.90;96454.38;4996446;28;19963;-75
2023/03/02 09:31:12;;;;;;;;;;;;;;;1.53;86.02;96451.81;4979040;28;19960;-74
2023/03/02 09:33:38;;;;;;;;;;;;;;;1.92;100.00;96477.03;4996073;28;20003;-74
2023/03/02 09:36:04;;;;;;;;;;;;;;;2.21;86.00;96415.22;4996388;28;20025;-75
2023/03/02 09:38:30;;;;;;;;;;;;;;;2.24;84.84;96408.91;4996037;28;19952;-74
2023/03/02 09:41:15;;;;;;;;;;;;;;;2.21;84.48;96406.66;4978444;28;19952;-74
2023/03/02 09:43:50;;;;;;;;;;;;;;;2.15;83.75;96404.75;4996188;28;19955;-74
2023/03/02 09:46:25;;;;;;;;;;;;;;;2.09;83.99;96406.19;4978556;28;19970;-75
2023/03/02 09:49:03;;;;;;;;;;;;;;;2.09;84.13;96408.78;4996267;28;19944;-76
2023/03/02 09:51:32;;;;;;;;;;;;;;;2.10;84.19;96415.59;4995984;28;19964;-74
2023/03/02 09:54:02;;;;;;;;;;;;;;;2.13;84.70;96425.59;4995884;28;20289;-75
2023/03/02 09:56:28;;;;;;;;;;;;;;;2.19;87.09;96437.06;4995645;28;20327;-75
2023/03/02 09:58:58;;;;;;;;;;;;;;;2.28;84.96;96430.88;4996393;28;19945;-74
2023/03/02 10:01:31;;;;;;;;;;;;;;;2.34;84.89;96427.63;4995742;28;19951;-74
2023/03/02 10:04:01;;;;;;;;;;;;;;;2.41;84.85;96431.16;4996002;28;20301;-75
2023/03/02 10:06:28;;;;;;;;;;;;;;;2.47;84.09;96428.91;4995835;28;19961;-75
2023/03/02 10:08:55;;;;;;;;;;;;;;;2.51;84.02;96425.00;4995353;28;19976;-75
2023/03/02 10:11:30;;;;;;;;;;;;;;;2.54;84.04;96428.06;4995161;28;19954;-75
2023/03/02 10:14:03;;;;;;;;;;;;;;;2.62;84.31;96433.22;4995770;28;20359;-75
2023/03/02 10:16:32;;;;;;;;;;;;;;;2.67;83.05;96421.53;4995242;28;19965;-74
2023/03/02 10:19:07;;;;;;;;;;;;;;;2.69;83.50;96427.34;4995470;28;19957;-75
2023/03/02 10:21:37;;;;;;;;;;;;;;;2.75;83.70;96431.84;4995083;28;19954;-75
2023/03/02 10:24:11;;;;;;;;;;;;;;;2.77;82.62;96422.97;4995452;28;19956;-74
2023/03/02 10:26:37;;;;;;;;;;;;;;;2.82;83.42;96430.22;4995600;28;20403;-75
2023/03/02 10:29:02;;;;;;;;;;;;;;;2.91;83.14;96430.97;4995105;28;19941;-75
2023/03/02 10:31:30;;;;;;;;;;;;;;;2.97;82.92;96427.72;4995131;28;19965;-75
2023/03/02 10:33:56;;;;;;;;;;;;;;;3.05;82.94;96432.84;4995164;28;19955;-75
2023/03/02 10:36:27;;;;;;;;;;;;;;;3.11;81.87;96421.81;4995448;28;20331;-75
2023/03/02 10:38:54;;;;;;;;;;;;;;;3.17;81.62;96422.88;4994917;28;20418;-75
2023/03/02 10:41:24;;;;;;;;;;;;;;;3.19;80.23;96406.22;4994689;28;19996;-75
2023/03/02 10:43:57;;;;;;;;;;;;;;;3.19;81.80;96423.50;4981095;28;19955;-75
2023/03/02 10:46:22;;;;;;;;;;;;;;;3.23;81.36;96420.44;4994154;28;19955;-75
2023/03/02 10:48:53;;;;;;;;;;;;;;;3.31;82.08;96429.13;4993944;28;19956;-75
2023/03/02 10:51:27;;;;;;;;;;;;;;;3.36;81.72;96432.81;4995426;28;19943;-75
2023/03/02 10:54:02;;;;;;;;;;;;;;;3.43;82.01;96438.91;4994890;28;19949;-75
2023/03/02 10:56:28;;;;;;;;;;;;;;;3.50;81.26;96427.84;4994832;28;19964;-75
2023/03/02 10:59:01;;;;;;;;;;;;;;;3.57;80.61;96424.41;4994647;28;19963;-75
2023/03/02 11:01:28;;;;;;;;;;;;;;;3.63;80.65;96426.31;4994655;28;19952;-75
2023/03/02 11:03:55;;;;;;;;;;;;;;;3.70;80.68;96425.59;4995059;28;19956;-75
2023/03/02 11:06:21;;;;;;;;;;;;;;;3.72;79.81;96424.44;4994407;28;19964;-75
2023/03/02 11:09:16;;;;;;;;;;;;;;;3.73;80.37;96433.03;4994841;28;20021;-75
2023/03/02 11:11:48;;;;;;;;;;;;;;;3.73;79.87;96423.44;4985899;28;19949;-74
2023/03/02 11:14:15;;;;;;;;;;;;;;;3.78;79.67;96421.16;4994552;28;19938;-74
2023/03/02 11:16:41;;;;;;;;;;;;;;;3.84;80.51;96430.00;4994212;28;19970;-75
2023/03/02 11:19:12;;;;;;;;;;;;;;;3.85;80.53;96419.44;4994450;28;19952;-75
2023/03/02 11:21:40;;;;;;;;;;;;;;;3.93;82.30;96444.53;4994170;28;20320;-76
2023/03/02 11:24:12;;;;;;;;;;;;;;;4.15;82.73;96439.44;4994457;28;20439;-75
2023/03/02 11:26:43;;;;;;;;;;;;;;;4.38;81.43;96429.78;4994686;28;19945;-76
2023/03/02 11:29:32;;;;;;;;;;;;;;;4.59;79.90;96410.09;4994792;28;19951;-76
2023/03/02 11:32:07;;;;;;;;;;;;;;;4.79;78.11;96394.75;4977015;28;19944;-76
2023/03/02 11:34:49;;;;;;;;;;;;;;;4.89;78.15;96397.84;4994205;28;19953;-75
2023/03/02 11:37:15;;;;;;;;;;;;;;;5.01;77.64;96385.19;4994022;28;19974;-76
2023/03/02 11:39:47;;;;;;;;;;;;;;;5.05;75.07;96373.44;4994431;28;19940;-76
2023/03/02 11:42:20;;;;;;;;;;;;;;;5.04;76.10;96377.84;4994750;28;20423;-76
2023/03/02 11:44:49;;;;;;;;;;;;;;;4.97;74.87;96363.97;4982450;28;19958;-76
2023/03/02 11:47:16;;;;;;;;;;;;;;;4.86;75.18;96369.66;4994124;28;19942;-76
2023/03/02 11:50:04;;;;;;;;;;;;;;;4.74;75.37;96363.31;4994083;28;19957;-76
2023/03/02 11:52:32;;;;;;;;;;;;;;;4.60;76.40;96385.72;4994075;28;19944;-76
2023/03/02 11:55:02;;;;;;;;;;;;;;;4.58;76.34;96390.31;4993318;28;19970;-76
2023/03/02 11:57:39;;;;;;;;;;;;;;;4.50;75.78;96380.03;4993838;28;19955;-76
2023/03/02 12:00:12;;;;;;;;;;;;;;;4.38;76.01;96385.66;4994279;28;19952;-76
2023/03/02 12:02:38;;;;;;;;;;;;;;;4.36;77.17;96397.22;4994024;28;20310;-76
2023/03/02 12:05:05;;;;;;;;;;;;;;;4.38;76.66;96387.47;4994318;28;19954;-76
2023/03/02 12:07:31;;;;;;;;;;;;;;;4.41;77.41;96394.88;4993988;28;19943;-76
2023/03/02 12:10:21;;;;;;;;;;;;;;;4.47;77.51;96401.94;4994105;28;20297;-77
2023/03/02 12:12:57;;;;;;;;;;;;;;;4.55;77.19;96395.84;4983089;28;19956;-76
2023/03/02 12:15:44;;;;;;;;;;;;;;;4.63;76.53;96393.16;4993982;28;19945;-76
2023/03/02 12:18:21;;;;;;;;;;;;;;;4.68;75.64;96380.41;4993687;28;19961;-76
2023/03/02 12:21:17;;;;;;;;;;;;;;;4.64;76.55;96392.16;4993880;28;19944;-76
2023/03/02 12:23:42;;;;;;;;;;;;;;;4.61;76.38;96387.34;4977529;28;19956;-76
2023/03/02 12:26:20;;;;;;;;;;;;;;;4.65;77.17;96396.38;4992785;28;19941;-76
2023/03/02 12:28:58;;;;;;;;;;;;;;;4.67;76.45;96392.63;4993815;28;20459;-77
2023/03/02 12:31:24;;;;;;;;;;;;;;;4.71;76.54;96400.06;4993660;28;20299;-77
2023/03/02 12:33:51;;;;;;;;;;;;;;;4.71;76.06;96387.06;4994428;28;19997;-77
2023/03/02 12:36:16;;;;;;;;;;;;;;;4.73;74.47;96377.31;4996940;28;19962;-76
2023/03/02 12:38:46;;;;;;;;;;;;;;;4.72;75.42;96379.06;4997261;28;20037;-77
2023/03/02 12:41:34;;;;;;;;;;;;;;;4.74;75.46;96382.28;4996662;28;20314;-77
2023/03/02 12:44:00;;;;;;;;;;;;;;;4.72;75.48;96378.28;4984489;28;19973;-77
2023/03/02 12:46:30;;;;;;;;;;;;;;;4.76;75.67;96377.72;4996939;28;19943;-77
2023/03/02 12:48:56;;;;;;;;;;;;;;;4.79;75.84;96377.38;4997097;28;20462;-77
2023/03/02 12:51:24;;;;;;;;;;;;;;;4.83;75.96;96383.00;4996912;28;19949;-76
2023/03/02 12:54:03;;;;;;;;;;;;;;;4.85;75.53;96378.41;4997347;28;19957;-77